Terminal Aerodrome Forecast
Issued by NWS Paducah, KY

Home | Current Version | Previous Version | Text Only | Print | Product List | Glossary On
Versions: 1 2 3 4 5 6 7 8 9 10 11 12 13 14 15 16 17
000
FTUS43 KPAH 241231 AAA
TAFEVV
TAF AMD
KEVV 241231Z 2413/2512 34005KT 4SM RA BR SCT008 OVC070
      TEMPO 2413/2417 2SM RA BR BKN006
     FM241700 32007KT 2SM RA BR OVC015
     FM242100 31008KT 6SM -RA OVC035
     FM250600 28004KT P6SM BKN015=

USA.gov is the U.S. government's official web portal to all federal, state and local government web resources and services.